Time;durP1;ratioP1;P1;durP2;ratioP2;P2;SDS_P1;SDS_P2;PMS_P1;PMS_P2;Temp;Humidity;BMP_temperature;BMP_pressure;BME280_temperature;BME280_humidity;BME280_pressure;Samples;Min_cycle;Max_cycle;Signal;HPM_P1;HPM_P2
2024/01/16 00:01:10;;;;;;;37.60;19.80;;;;;;;0.34;73.87;99483.79;107311;1256;99212;-65
2024/01/16 00:03:44;;;;;;;38.00;20.80;;;;;;;0.35;73.90;99499.20;107316;1256;99704;-64
2024/01/16 00:06:12;;;;;;;36.00;19.00;;;;;;;0.38;74.03;99507.16;107304;1257;112253;-65
2024/01/16 00:08:41;;;;;;;40.10;20.80;;;;;;;0.40;74.19;99504.92;107336;1259;108786;-63
2024/01/16 00:11:09;;;;;;;35.00;19.50;;;;;;;0.42;74.42;99517.41;107288;1255;106423;-63
2024/01/16 00:13:37;;;;;;;37.00;19.80;;;;;;;0.46;74.58;99519.15;107317;1257;99182;-65
2024/01/16 00:16:06;;;;;;;44.10;20.00;;;;;;;0.49;74.68;99514.71;107363;1257;99071;-63
2024/01/16 00:18:34;;;;;;;36.00;19.50;;;;;;;0.52;74.84;99517.87;107251;1256;112641;-64
2024/01/16 00:21:03;;;;;;;38.40;19.30;;;;;;;0.56;75.02;99524.85;107330;1259;108272;-64
2024/01/16 00:23:32;;;;;;;30.40;18.20;;;;;;;0.58;75.08;99528.19;107336;1256;107650;-65
2024/01/16 00:26:01;;;;;;;32.30;17.50;;;;;;;0.61;75.30;99532.03;107349;1259;99278;-64
2024/01/16 00:28:32;;;;;;;33.60;18.10;;;;;;;0.65;75.44;99536.74;107338;1255;99087;-65
2024/01/16 00:31:00;;;;;;;29.60;17.10;;;;;;;0.68;75.93;99544.84;107354;1257;112487;-64
2024/01/16 00:33:28;;;;;;;33.50;17.60;;;;;;;0.69;76.37;99542.33;107262;1256;107529;-65
2024/01/16 00:35:56;;;;;;;30.70;16.80;;;;;;;0.70;76.31;99542.44;107179;1256;107535;-65
2024/01/16 00:38:25;;;;;;;26.70;16.00;;;;;;;0.73;77.25;99531.45;107310;1258;99326;-63
2024/01/16 00:40:54;;;;;;;33.00;17.70;;;;;;;0.72;77.75;99530.97;107113;1256;99103;-65
2024/01/16 00:43:22;;;;;;;34.30;18.30;;;;;;;0.71;77.37;99554.36;107382;1255;111867;-64
2024/01/16 00:45:51;;;;;;;33.80;18.50;;;;;;;0.70;77.48;99565.04;107306;1259;108139;-64
2024/01/16 00:48:20;;;;;;;34.80;19.10;;;;;;;0.68;77.20;99567.97;107291;1257;108580;-65
2024/01/16 00:50:49;;;;;;;34.70;18.50;;;;;;;0.67;77.10;99566.77;107310;1257;98963;-63
2024/01/16 00:53:18;;;;;;;34.70;17.40;;;;;;;0.68;77.17;99566.71;107292;1256;99074;-64
2024/01/16 00:55:46;;;;;;;34.10;19.60;;;;;;;0.68;77.24;99565.50;107319;1257;113243;-65
2024/01/16 00:58:15;;;;;;;30.50;18.10;;;;;;;0.68;77.14;99572.19;107294;1257;109510;-63
2024/01/16 01:00:43;;;;;;;33.40;17.50;;;;;;;0.68;77.22;99589.48;107263;1255;107301;-64
2024/01/16 01:03:11;;;;;;;33.60;18.10;;;;;;;0.68;77.08;99590.72;107274;1257;99260;-65
2024/01/16 01:05:40;;;;;;;33.50;18.40;;;;;;;0.72;77.15;99590.81;107340;1255;99855;-64
2024/01/16 01:08:09;;;;;;;28.10;16.60;;;;;;;0.76;77.08;99579.45;107294;1257;113433;-64
2024/01/16 01:10:37;;;;;;;33.80;17.50;;;;;;;0.77;77.02;99592.44;107288;1257;107610;-63
2024/01/16 01:13:05;;;;;;;29.60;18.10;;;;;;;0.78;77.11;99597.65;107244;1257;108366;-64
2024/01/16 01:15:34;;;;;;;33.60;18.10;;;;;;;0.79;77.06;99603.60;107266;1257;99185;-65
2024/01/16 01:18:03;;;;;;;33.70;18.90;;;;;;;0.81;77.18;99596.39;107270;1257;99077;-64
2024/01/16 01:20:32;;;;;;;31.70;17.20;;;;;;;0.82;77.07;99599.36;107263;1256;111837;-64
2024/01/16 01:23:01;;;;;;;28.90;16.10;;;;;;;0.84;76.98;99613.31;107266;1257;108395;-63
2024/01/16 01:25:29;;;;;;;33.90;16.90;;;;;;;0.87;77.11;99619.31;107265;1255;108304;-64
2024/01/16 01:27:58;;;;;;;32.20;16.70;;;;;;;0.91;77.25;99630.36;107301;1255;99186;-64
2024/01/16 01:30:26;;;;;;;31.00;15.80;;;;;;;0.93;77.22;99623.84;107201;1256;99079;-64
2024/01/16 01:32:55;;;;;;;30.00;16.20;;;;;;;0.96;77.09;99624.19;107218;1256;113284;-63
2024/01/16 01:35:23;;;;;;;29.40;16.70;;;;;;;0.98;77.05;99616.64;107276;1255;108772;-64
2024/01/16 01:37:52;;;;;;;27.10;16.00;;;;;;;1.00;77.15;99612.27;107261;1257;107700;-64
2024/01/16 01:40:20;;;;;;;26.50;15.70;;;;;;;1.02;77.24;99615.98;107221;1256;99217;-64
2024/01/16 01:42:48;;;;;;;32.30;17.40;;;;;;;1.06;77.18;99602.52;107243;1257;99710;-64
2024/01/16 01:45:17;;;;;;;34.00;16.50;;;;;;;1.08;77.09;99602.89;107259;1257;113603;-63
2024/01/16 01:47:46;;;;;;;33.10;17.00;;;;;;;1.08;76.79;99630.45;107284;1256;108461;-63
2024/01/16 01:50:14;;;;;;;28.80;16.90;;;;;;;1.08;76.81;99618.27;107214;1256;107622;-65
2024/01/16 01:52:44;;;;;;;32.00;15.20;;;;;;;1.08;76.76;99592.67;107103;1257;99193;-64
2024/01/16 01:55:14;;;;;;;32.20;17.90;;;;;;;1.07;76.58;99585.27;107325;1257;99746;-65
2024/01/16 01:57:42;;;;;;;29.40;17.50;;;;;;;1.09;76.86;99616.23;107302;1256;113222;-64
2024/01/16 02:00:12;;;;;;;31.40;15.00;;;;;;;1.11;76.97;99609.94;107309;1256;107934;-64
2024/01/16 02:02:42;;;;;;;28.50;15.90;;;;;;;1.12;76.84;99606.34;107116;1257;107950;-64
2024/01/16 02:05:10;;;;;;;30.10;15.70;;;;;;;1.12;76.78;99614.27;107271;1255;99208;-67
2024/01/16 02:07:39;;;;;;;29.70;17.00;;;;;;;1.08;76.48;99611.15;107314;1257;99194;-65
2024/01/16 02:10:08;;;;;;;32.70;17.80;;;;;;;1.07;76.55;99620.45;107280;1257;113111;-64
2024/01/16 02:12:36;;;;;;;27.50;17.00;;;;;;;1.05;76.63;99628.19;107267;1256;107748;-64
2024/01/16 02:15:05;;;;;;;30.90;16.60;;;;;;;0.99;76.43;99629.29;107265;1257;107407;-64
2024/01/16 02:17:33;;;;;;;32.00;17.80;;;;;;;0.91;76.49;99641.80;107260;1256;99196;-64
2024/01/16 02:20:03;;;;;;;30.90;17.70;;;;;;;0.87;76.67;99651.80;107298;1255;99074;-65
2024/01/16 02:22:33;;;;;;;34.00;19.20;;;;;;;0.81;76.56;99659.94;107296;1257;112184;-64
2024/01/16 02:25:01;;;;;;;34.10;18.60;;;;;;;0.73;76.06;99657.13;107259;1257;107307;-64
2024/01/16 02:27:29;;;;;;;35.70;19.50;;;;;;;0.67;76.28;99662.98;107273;1257;106685;-65
2024/01/16 02:29:58;;;;;;;31.90;18.70;;;;;;;0.60;76.20;99664.80;107295;1256;99282;-65
2024/01/16 02:32:26;;;;;;;33.20;19.10;;;;;;;0.54;76.30;99670.31;107247;1259;99176;-64
2024/01/16 02:34:54;;;;;;;35.50;19.10;;;;;;;0.49;76.30;99674.21;106974;1257;113369;-63
2024/01/16 02:37:23;;;;;;;33.60;18.60;;;;;;;0.42;76.24;99677.23;107275;1256;107967;-65
2024/01/16 02:39:51;;;;;;;35.70;19.50;;;;;;;0.36;76.01;99679.79;107262;1257;108335;-64
2024/01/16 02:42:19;;;;;;;35.30;19.20;;;;;;;0.29;75.97;99673.48;107251;1257;99269;-63
2024/01/16 02:44:48;;;;;;;36.60;19.10;;;;;;;0.23;76.06;99660.86;107333;1257;99829;-63
2024/01/16 02:47:16;;;;;;;35.50;19.60;;;;;;;0.16;76.14;99658.08;107271;1257;113205;-64
2024/01/16 02:49:44;;;;;;;37.60;19.90;;;;;;;0.11;76.31;99653.85;107314;1255;107669;-66
2024/01/16 02:52:13;;;;;;;34.00;19.00;;;;;;;0.07;76.37;99651.98;107261;1257;108321;-65
2024/01/16 02:54:41;;;;;;;37.20;19.30;;;;;;;0.03;76.57;99648.35;107313;1255;99221;-65
2024/01/16 02:57:10;;;;;;;35.90;19.50;;;;;;;-0.02;76.50;99657.27;107325;1255;99077;-63
2024/01/16 02:59:38;;;;;;;39.90;21.20;;;;;;;-0.07;76.62;99663.39;107309;1257;112155;-63
2024/01/16 03:02:08;;;;;;;37.40;20.30;;;;;;;-0.12;76.62;99664.05;107313;1257;107671;-63
2024/01/16 03:04:36;;;;;;;36.30;21.90;;;;;;;-0.15;76.82;99659.66;107264;1256;107400;-64
2024/01/16 03:07:05;;;;;;;37.70;21.10;;;;;;;-0.18;76.77;99658.26;107284;1256;99209;-65
2024/01/16 03:09:33;;;;;;;36.00;20.60;;;;;;;-0.20;76.67;99664.05;107264;1255;99752;-64
2024/01/16 03:12:02;;;;;;;39.50;20.90;;;;;;;-0.21;76.86;99657.93;107079;1257;113234;-65
2024/01/16 03:14:33;;;;;;;36.20;21.20;;;;;;;-0.21;76.90;99648.55;107307;1256;108600;-65
2024/01/16 03:17:03;;;;;;;41.00;21.00;;;;;;;-0.20;77.40;99646.55;107227;1259;107698;-65
2024/01/16 03:19:31;;;;;;;38.60;20.70;;;;;;;-0.17;77.64;99636.31;107226;1256;99177;-63
2024/01/16 03:22:00;;;;;;;38.30;20.20;;;;;;;-0.16;77.80;99640.54;107287;1257;99076;-63
2024/01/16 03:24:28;;;;;;;36.50;19.80;;;;;;;-0.15;78.16;99635.72;107270;1257;113173;-64
2024/01/16 03:26:57;;;;;;;35.70;19.70;;;;;;;-0.17;77.98;99631.20;107257;1257;107578;-64
2024/01/16 03:29:25;;;;;;;40.40;20.60;;;;;;;-0.17;78.09;99640.91;107218;1257;108020;-64
2024/01/16 03:31:54;;;;;;;37.80;20.10;;;;;;;-0.16;78.26;99650.20;107215;1257;99201;-63
2024/01/16 03:34:23;;;;;;;42.50;21.90;;;;;;;-0.14;78.21;99656.27;107307;1259;99074;-63
2024/01/16 03:36:52;;;;;;;38.40;22.90;;;;;;;-0.16;77.98;99652.67;107215;1259;112777;-65
2024/01/16 03:39:20;;;;;;;35.10;20.80;;;;;;;-0.17;77.89;99652.02;107253;1257;109357;-65
2024/01/16 03:41:49;;;;;;;38.60;19.90;;;;;;;-0.16;78.13;99657.98;107259;1257;108269;-65
2024/01/16 03:44:17;;;;;;;41.90;19.40;;;;;;;-0.14;78.25;99663.16;107247;1259;99318;-65
2024/01/16 03:46:45;;;;;;;41.00;20.50;;;;;;;-0.12;78.33;99670.58;107266;1257;99179;-64
2024/01/16 03:49:14;;;;;;;38.20;20.90;;;;;;;-0.11;78.16;99681.66;107226;1257;113580;-65
2024/01/16 03:51:46;;;;;;;34.30;19.20;;;;;;;-0.11;78.16;99690.94;107246;1255;108579;-64
2024/01/16 03:54:14;;;;;;;38.40;20.90;;;;;;;-0.11;78.21;99687.11;107231;1257;106548;-64
2024/01/16 03:56:43;;;;;;;37.40;19.90;;;;;;;-0.09;78.42;99686.63;107229;1257;99816;-64
2024/01/16 03:59:11;;;;;;;33.30;19.10;;;;;;;-0.06;78.44;99687.14;107280;1259;100868;-64
2024/01/16 04:01:40;;;;;;;44.20;24.70;;;;;;;-0.04;78.42;99684.02;107282;1257;112139;-63
2024/01/16 04:04:10;;;;;;;34.60;18.90;;;;;;;-0.07;78.31;99684.71;107261;1257;107944;-64
2024/01/16 04:06:38;;;;;;;35.90;21.30;;;;;;;-0.10;78.06;99682.09;107248;1257;108338;-64
2024/01/16 04:09:08;;;;;;;40.00;22.90;;;;;;;-0.12;77.89;99690.32;107256;1255;99246;-63
2024/01/16 04:11:36;;;;;;;39.50;20.80;;;;;;;-0.12;78.06;99690.65;107288;1257;100834;-64
2024/01/16 04:14:05;;;;;;;34.60;21.00;;;;;;;-0.13;77.76;99690.56;107248;1256;112907;-65
2024/01/16 04:16:33;;;;;;;38.90;21.20;;;;;;;-0.14;77.67;99683.08;107284;1257;107955;-64
2024/01/16 04:19:01;;;;;;;32.80;19.50;;;;;;;-0.12;77.91;99692.41;107243;1257;108447;-64
2024/01/16 04:21:30;;;;;;;32.80;18.00;;;;;;;-0.13;77.89;99700.27;107228;1256;99236;-64
2024/01/16 04:23:59;;;;;;;37.50;19.40;;;;;;;-0.13;78.03;99695.01;107324;1255;99202;-65
2024/01/16 04:26:27;;;;;;;33.90;19.10;;;;;;;-0.11;78.19;99704.23;107257;1257;113765;-66
2024/01/16 04:28:55;;;;;;;35.30;20.90;;;;;;;-0.10;78.19;99701.80;107281;1257;108405;-63
2024/01/16 04:31:23;;;;;;;32.30;20.10;;;;;;;-0.07;78.20;99695.63;107270;1256;109683;-66
2024/01/16 04:33:51;;;;;;;33.90;19.50;;;;;;;-0.04;78.28;99697.08;107175;1256;99182;-65
2024/01/16 04:36:20;;;;;;;36.10;19.90;;;;;;;-0.05;78.14;99698.54;106982;1256;99213;-64
2024/01/16 04:38:48;;;;;;;40.60;22.80;;;;;;;-0.08;78.04;99696.44;107269;1257;113981;-64
2024/01/16 04:41:19;;;;;;;41.60;23.40;;;;;;;-0.11;78.06;99699.94;107215;1257;108316;-64
2024/01/16 04:43:49;;;;;;;38.30;21.50;;;;;;;-0.14;77.87;99715.14;107286;1259;106540;-64
2024/01/16 04:46:17;;;;;;;36.70;20.50;;;;;;;-0.19;77.87;99727.55;107238;1256;99175;-65
2024/01/16 04:48:46;;;;;;;40.00;20.30;;;;;;;-0.21;77.76;99732.43;107260;1256;100030;-64
2024/01/16 04:51:14;;;;;;;34.70;19.80;;;;;;;-0.24;77.60;99726.80;107308;1256;113411;-64
2024/01/16 04:53:43;;;;;;;34.80;20.60;;;;;;;-0.25;78.09;99732.52;107283;1257;108061;-64
2024/01/16 04:56:11;;;;;;;37.10;20.40;;;;;;;-0.23;78.20;99734.50;107238;1257;108489;-63
2024/01/16 04:58:40;;;;;;;42.20;22.00;;;;;;;-0.22;78.07;99737.61;107261;1256;99324;-65
2024/01/16 05:01:08;;;;;;;35.30;18.90;;;;;;;-0.20;78.22;99745.06;107124;1256;99717;-64
2024/01/16 05:03:37;;;;;;;32.90;18.40;;;;;;;-0.19;78.34;99757.55;107272;1255;113488;-65
2024/01/16 05:06:17;;;;;;;35.30;19.50;;;;;;;-0.20;78.46;99759.52;107114;1257;108569;-65
2024/01/16 05:08:46;;;;;;;38.30;20.60;;;;;;;-0.16;78.60;99773.02;107211;1257;108640;-64
2024/01/16 05:11:14;;;;;;;37.30;19.90;;;;;;;-0.14;78.66;99778.21;107248;1259;99267;-65
2024/01/16 05:13:42;;;;;;;38.00;19.60;;;;;;;-0.13;78.46;99780.62;107347;1257;99219;-65
2024/01/16 05:16:11;;;;;;;42.10;21.70;;;;;;;-0.14;78.40;99791.23;107276;1257;112124;-66
2024/01/16 05:18:43;;;;;;;31.60;19.60;;;;;;;-0.16;78.45;99800.20;107298;1256;108596;-65
2024/01/16 05:21:11;;;;;;;49.10;22.40;;;;;;;-0.14;78.77;99805.02;107229;1257;108203;-65
2024/01/16 05:23:39;;;;;;;40.90;21.20;;;;;;;-0.09;78.76;99810.15;107032;1256;99320;-66
2024/01/16 05:26:08;;;;;;;36.60;19.80;;;;;;;-0.08;78.50;99814.14;107217;1260;99809;-65
2024/01/16 05:28:39;;;;;;;36.30;19.10;;;;;;;-0.09;78.28;99814.06;107274;1255;112650;-65
2024/01/16 05:31:07;;;;;;;33.30;17.70;;;;;;;-0.09;78.28;99817.95;107303;1257;108788;-66
2024/01/16 05:33:35;;;;;;;33.70;19.40;;;;;;;-0.11;78.14;99820.00;107247;1257;108483;-66
2024/01/16 05:36:04;;;;;;;34.70;20.00;;;;;;;-0.12;78.14;99826.05;107267;1257;99083;-65
2024/01/16 05:38:33;;;;;;;40.90;19.80;;;;;;;-0.12;78.42;99835.37;107262;1257;99071;-67
2024/01/16 05:41:02;;;;;;;41.50;21.40;;;;;;;-0.10;78.24;99834.91;107295;1257;112294;-68
2024/01/16 05:43:30;;;;;;;39.30;20.30;;;;;;;-0.08;78.36;99831.42;107237;1256;108334;-68
2024/01/16 05:45:58;;;;;;;35.80;19.70;;;;;;;-0.10;78.01;99838.77;107203;1256;108054;-65
2024/01/16 05:48:27;;;;;;;33.70;20.10;;;;;;;-0.09;78.09;99845.27;107218;1257;99202;-67
2024/01/16 05:50:56;;;;;;;37.20;19.30;;;;;;;-0.12;77.98;99851.23;107321;1257;100994;-67
2024/01/16 05:53:24;;;;;;;41.80;21.40;;;;;;;-0.17;77.92;99850.62;107257;1257;113104;-67
2024/01/16 05:55:54;;;;;;;36.50;19.60;;;;;;;-0.18;78.16;99855.46;107254;1257;107945;-66
2024/01/16 05:58:23;;;;;;;39.80;19.60;;;;;;;-0.15;78.25;99860.95;107110;1257;108093;-67
2024/01/16 06:00:51;;;;;;;42.60;21.50;;;;;;;-0.12;78.26;99862.34;107212;1259;99239;-65
2024/01/16 06:03:19;;;;;;;46.30;20.00;;;;;;;-0.09;78.35;99864.47;107263;1255;99282;-66
2024/01/16 06:05:48;;;;;;;41.60;21.00;;;;;;;-0.10;78.13;99872.13;107279;1257;112536;-67
2024/01/16 06:08:16;;;;;;;50.60;22.30;;;;;;;-0.11;78.24;99866.86;107262;1257;108456;-67
2024/01/16 06:10:45;;;;;;;41.30;21.50;;;;;;;-0.10;78.22;99869.08;107112;1257;107767;-67
2024/01/16 06:13:13;;;;;;;44.90;22.20;;;;;;;-0.15;77.76;99879.76;107234;1255;99192;-67
2024/01/16 06:15:42;;;;;;;43.50;22.60;;;;;;;-0.19;77.69;99876.98;107224;1257;99093;-67
2024/01/16 06:18:10;;;;;;;38.30;20.40;;;;;;;-0.19;77.81;99881.40;107269;1259;113475;-66
2024/01/16 06:20:39;;;;;;;39.50;19.60;;;;;;;-0.24;77.60;99892.98;107277;1256;108372;-66
2024/01/16 06:23:08;;;;;;;39.70;18.70;;;;;;;-0.29;77.59;99889.94;107364;1257;106818;-67
2024/01/16 06:25:36;;;;;;;37.20;18.70;;;;;;;-0.34;77.50;99888.27;107236;1257;99263;-66
2024/01/16 06:28:05;;;;;;;32.30;18.30;;;;;;;-0.39;77.51;99892.95;107236;1255;99075;-66
2024/01/16 06:30:34;;;;;;;41.90;22.30;;;;;;;-0.38;77.84;99891.31;107243;1259;112367;-66
2024/01/16 06:33:03;;;;;;;38.00;20.20;;;;;;;-0.34;78.18;99900.95;107243;1256;108500;-66
2024/01/16 06:35:31;;;;;;;40.60;21.30;;;;;;;-0.27;78.39;99899.51;107249;1257;106977;-69
2024/01/16 06:38:01;;;;;;;42.30;22.60;;;;;;;-0.20;78.61;99911.58;107021;1257;99352;-69
2024/01/16 06:40:30;;;;;;;45.10;21.50;;;;;;;-0.13;78.65;99917.71;107247;1256;99830;-69
2024/01/16 06:42:58;;;;;;;46.80;21.80;;;;;;;-0.10;78.57;99927.61;107243;1257;112822;-69
2024/01/16 06:45:27;;;;;;;45.40;21.20;;;;;;;-0.10;78.41;99938.89;107308;1255;108076;-68
2024/01/16 06:47:55;;;;;;;51.10;22.70;;;;;;;-0.10;78.37;99944.23;107088;1261;107972;-68
2024/01/16 06:50:24;;;;;;;51.60;29.30;;;;;;;-0.10;78.59;99956.33;107266;1257;99176;-69
2024/01/16 06:52:52;;;;;;;34.40;20.90;;;;;;;-0.08;78.81;99960.11;107227;1257;99167;-69
2024/01/16 06:55:20;;;;;;;42.40;22.80;;;;;;;-0.04;78.92;99959.89;107204;1256;113630;-68
2024/01/16 06:57:48;;;;;;;48.10;25.00;;;;;;;0.00;78.98;99963.51;107245;1257;108102;-68
2024/01/16 07:00:17;;;;;;;36.60;21.40;;;;;;;0.05;79.31;99965.52;107251;1259;108617;-69
2024/01/16 07:02:45;;;;;;;39.60;21.80;;;;;;;0.07;79.04;99975.85;107045;1257;99234;-68
2024/01/16 07:05:14;;;;;;;37.20;22.70;;;;;;;0.03;78.78;99981.71;107270;1257;99830;-68
2024/01/16 07:07:42;;;;;;;37.90;22.40;;;;;;;0.02;79.09;99986.35;107241;1257;112741;-70
2024/01/16 07:10:17;;;;;;;42.20;24.60;;;;;;;0.01;79.10;99989.90;107155;1257;107867;-68
2024/01/16 07:12:47;;;;;;;47.30;24.50;;;;;;;0.02;78.93;99997.28;107204;1257;108146;-68
2024/01/16 07:15:16;;;;;;;38.10;22.70;;;;;;;-0.04;78.31;100000.77;107200;1257;99309;-69
2024/01/16 07:17:44;;;;;;;45.70;25.00;;;;;;;-0.09;78.30;100003.53;107281;1257;99734;-68
2024/01/16 07:20:13;;;;;;;44.40;24.70;;;;;;;-0.10;78.48;100012.58;107270;1257;113596;-68
2024/01/16 07:22:41;;;;;;;36.40;20.70;;;;;;;-0.07;78.50;100025.63;107248;1257;107621;-68
2024/01/16 07:25:09;;;;;;;40.80;20.20;;;;;;;-0.06;78.25;100025.19;107202;1257;107820;-69
2024/01/16 07:27:38;;;;;;;40.60;21.20;;;;;;;-0.03;78.09;100031.38;107183;1257;99272;-68
2024/01/16 07:30:07;;;;;;;38.70;20.80;;;;;;;0.05;78.18;100039.08;107270;1257;99116;-69
2024/01/16 07:32:35;;;;;;;49.00;21.00;;;;;;;0.18;78.56;100041.50;107363;1257;113596;-68
2024/01/16 07:35:05;;;;;;;40.00;22.80;;;;;;;0.31;78.45;100051.02;107268;1257;108744;-68
2024/01/16 07:37:33;;;;;;;46.80;25.70;;;;;;;0.46;78.39;100051.02;107218;1257;107297;-69
2024/01/16 07:40:01;;;;;;;45.60;24.00;;;;;;;0.54;78.12;100053.90;107213;1259;99180;-69
2024/01/16 07:42:34;;;;;;;42.90;22.40;;;;;;;0.56;77.67;100061.35;107254;1257;99738;-68
2024/01/16 07:45:04;;;;;;;46.50;24.50;;;;;;;0.55;77.63;100060.00;107271;1257;113293;-69
2024/01/16 07:47:33;;;;;;;44.90;24.90;;;;;;;0.56;77.37;100071.59;107266;1257;108407;-69
2024/01/16 07:50:02;;;;;;;47.40;25.10;;;;;;;0.58;77.49;100079.27;107259;1257;107152;-70
2024/01/16 07:52:34;;;;;;;50.00;25.60;;;;;;;0.59;77.44;100082.88;107281;1257;99658;-69
2024/01/16 07:55:03;;;;;;;51.10;25.10;;;;;;;0.66;77.18;100086.77;107253;1257;99195;-70
2024/01/16 07:57:32;;;;;;;49.60;27.00;;;;;;;0.68;76.83;100088.23;107262;1257;111619;-69
2024/01/16 08:00:00;;;;;;;53.00;27.40;;;;;;;0.69;76.76;100089.37;107098;1257;109834;-67
2024/01/16 08:02:33;;;;;;;61.20;28.30;;;;;;;0.74;76.84;100094.40;107225;1257;108695;-69
2024/01/16 08:05:03;;;;;;;55.20;31.50;;;;;;;0.81;76.92;100098.76;107271;1258;99185;-69
2024/01/16 08:07:32;;;;;;;62.50;32.50;;;;;;;0.89;77.00;100105.70;107297;1257;99199;-68
2024/01/16 08:10:00;;;;;;;59.00;32.30;;;;;;;0.94;76.92;100107.52;107266;1257;113105;-68
2024/01/16 08:12:29;;;;;;;57.00;28.50;;;;;;;0.96;76.92;100108.30;107305;1258;108855;-68
2024/01/16 08:14:57;;;;;;;44.70;27.60;;;;;;;0.94;76.75;100114.06;107268;1257;109299;-68
2024/01/16 08:17:25;;;;;;;46.30;25.30;;;;;;;0.88;76.62;100117.20;107197;1257;99188;-69
2024/01/16 08:19:54;;;;;;;47.20;26.10;;;;;;;0.84;76.59;100119.77;107291;1257;99224;-69
2024/01/16 08:22:22;;;;;;;47.70;27.20;;;;;;;0.82;76.77;100122.38;107215;1257;113366;-69
2024/01/16 08:24:50;;;;;;;51.00;28.40;;;;;;;0.93;77.05;100123.85;107236;1256;108107;-68
2024/01/16 08:27:19;;;;;;;53.80;27.10;;;;;;;1.08;77.33;100126.84;107236;1257;108596;-68
2024/01/16 08:29:49;;;;;;;59.40;31.20;;;;;;;1.22;77.37;100129.88;107216;1257;99133;-68
2024/01/16 08:32:18;;;;;;;53.90;30.10;;;;;;;1.36;77.43;100130.29;107260;1257;99109;-67
2024/01/16 08:34:46;;;;;;;65.00;29.70;;;;;;;1.57;77.56;100125.12;107241;1259;112675;-69
2024/01/16 08:37:15;;;;;;;48.50;28.00;;;;;;;1.83;77.52;100127.78;107243;1257;108134;-68
2024/01/16 08:39:43;;;;;;;53.20;29.30;;;;;;;1.95;77.28;100130.62;107212;1257;107815;-68
2024/01/16 08:42:12;;;;;;;52.00;27.80;;;;;;;2.06;77.00;100134.35;107273;1259;99186;-69
2024/01/16 08:44:42;;;;;;;49.90;26.50;;;;;;;2.07;76.17;100136.70;106474;1259;1055799;-68
2024/01/16 08:47:11;;;;;;;49.30;27.50;;;;;;;2.11;75.44;100143.06;107239;1257;112820;-70
2024/01/16 08:49:40;;;;;;;49.50;28.30;;;;;;;2.79;74.48;100143.80;107218;1256;107762;-68
2024/01/16 08:52:09;;;;;;;51.70;28.00;;;;;;;3.35;73.11;100142.02;107327;1257;106795;-68
2024/01/16 08:54:37;;;;;;;48.70;28.80;;;;;;;3.78;72.93;100142.79;107274;1259;99313;-68
2024/01/16 08:57:06;;;;;;;53.40;29.90;;;;;;;4.33;72.18;100141.73;107252;1259;99108;-68
2024/01/16 08:59:34;;;;;;;47.10;29.00;;;;;;;5.09;71.36;100138.11;107283;1257;112967;-68
2024/01/16 09:02:03;;;;;;;53.30;29.00;;;;;;;5.63;68.11;100134.27;107251;1257;107898;-68
2024/01/16 09:04:31;;;;;;;50.40;28.70;;;;;;;6.09;66.06;100134.67;107263;1256;108487;-69
2024/01/16 09:07:00;;;;;;;47.60;28.50;;;;;;;6.47;63.04;100136.64;107258;1259;99180;-68
2024/01/16 09:09:29;;;;;;;46.90;28.40;;;;;;;6.91;62.67;100138.71;107281;1257;99178;-68
2024/01/16 09:11:57;;;;;;;43.10;26.60;;;;;;;7.25;61.51;100140.84;107305;1257;113014;-68
2024/01/16 09:14:26;;;;;;;47.60;26.60;;;;;;;7.70;61.26;100138.11;107274;1257;108248;-68
2024/01/16 09:16:55;;;;;;;47.40;25.60;;;;;;;8.14;60.63;100139.45;107239;1257;108722;-68
2024/01/16 09:19:23;;;;;;;46.40;26.10;;;;;;;8.62;60.00;100128.31;107223;1259;99313;-69
2024/01/16 09:21:53;;;;;;;42.30;24.60;;;;;;;9.10;60.11;100123.15;107251;1259;99200;-69
2024/01/16 09:24:21;;;;;;;42.80;26.60;;;;;;;9.62;58.27;100123.02;107291;1257;113503;-69
2024/01/16 09:26:50;;;;;;;45.80;24.80;;;;;;;9.93;56.21;100118.59;107267;1259;108482;-68
2024/01/16 09:29:18;;;;;;;40.40;24.60;;;;;;;10.44;52.81;100131.10;107236;1257;108403;-68
2024/01/16 09:31:47;;;;;;;34.50;22.20;;;;;;;10.43;49.25;100137.30;107172;1257;99308;-69
2024/01/16 09:34:17;;;;;;;55.10;33.80;;;;;;;10.65;50.30;100135.30;106980;1257;99124;-69
2024/01/16 09:36:46;;;;;;;32.20;19.90;;;;;;;10.97;51.12;100134.55;107264;1257;113027;-71
2024/01/16 09:39:16;;;;;;;41.40;19.40;;;;;;;11.49;51.93;100134.16;107091;1258;108291;-69
2024/01/16 09:41:47;;;;;;;27.80;17.90;;;;;;;11.95;51.13;100133.13;107220;1256;108262;-69
2024/01/16 09:44:15;;;;;;;20.80;14.30;;;;;;;12.12;45.57;100136.11;107187;1259;99208;-69
2024/01/16 09:46:48;;;;;;;18.70;12.80;;;;;;;12.01;41.77;100136.13;107266;1257;99068;-70
2024/01/16 09:49:17;;;;;;;20.50;14.20;;;;;;;11.92;40.98;100141.86;107232;1257;113593;-69
2024/01/16 09:51:46;;;;;;;20.90;12.80;;;;;;;12.08;42.39;100149.79;107264;1258;107032;-68
2024/01/16 09:54:14;;;;;;;18.70;12.60;;;;;;;12.37;42.28;100153.27;107104;1260;107147;-68
2024/01/16 09:56:45;;;;;;;21.20;13.60;;;;;;;12.75;42.12;100151.91;107232;1259;99677;-68
2024/01/16 09:59:18;;;;;;;20.50;13.00;;;;;;;13.01;42.23;100153.98;107279;1257;99086;-69
2024/01/16 10:01:49;;;;;;;22.10;14.00;;;;;;;13.17;39.11;100151.33;107136;1258;113228;-69
2024/01/16 10:04:17;;;;;;;19.00;12.70;;;;;;;13.65;40.85;100154.92;107274;1257;108084;-68
2024/01/16 10:06:47;;;;;;;17.90;11.80;;;;;;;13.68;36.29;100159.11;107282;1257;107620;-68
2024/01/16 10:09:16;;;;;;;18.20;12.80;;;;;;;13.61;37.33;100159.47;107234;1260;99186;-68
2024/01/16 10:11:46;;;;;;;17.70;12.80;;;;;;;13.99;39.10;100166.45;107125;1260;99746;-68
2024/01/16 10:14:15;;;;;;;18.40;12.50;;;;;;;14.51;39.42;100159.65;107223;1258;113287;-70
2024/01/16 10:17:05;;;;;;;18.60;12.90;;;;;;;14.86;35.55;100158.90;107282;1260;108050;-69
2024/01/16 10:19:34;;;;;;;19.40;12.50;;;;;;;14.85;34.34;100161.58;107214;1257;108250;-68
2024/01/16 10:22:25;;;;;;;20.40;13.20;;;;;;;14.64;33.01;100167.20;107195;1257;99191;-68
2024/01/16 10:25:08;;;;;;;18.10;13.00;;;;;;;14.58;32.90;100168.86;107295;1257;99080;-69
2024/01/16 10:27:39;;;;;;;18.20;13.30;;;;;;;14.54;33.72;100170.48;107258;1257;112007;-69
2024/01/16 10:30:10;;;;;;;17.10;12.80;;;;;;;14.77;34.55;100169.42;107240;1263;109215;-68
2024/01/16 10:32:41;;;;;;;17.80;13.00;;;;;;;15.01;33.07;100172.51;107013;1257;109861;-69
2024/01/16 10:35:14;;;;;;;20.30;14.20;;;;;;;14.96;33.34;100168.82;107254;1258;99183;-69
2024/01/16 10:37:48;;;;;;;20.20;14.00;;;;;;;15.18;37.99;100170.77;107257;1257;98408;-69
2024/01/16 10:40:21;;;;;;;21.30;14.20;;;;;;;15.27;33.23;100169.27;107295;1257;113447;-68
2024/01/16 10:43:04;;;;;;;18.20;12.80;;;;;;;15.25;32.12;100170.88;107264;1257;107648;-70
2024/01/16 10:45:33;;;;;;;23.70;15.10;;;;;;;15.60;34.06;100168.00;107201;1258;108598;-69
2024/01/16 10:48:03;;;;;;;23.00;16.70;;;;;;;16.06;32.68;100170.47;107297;1257;99205;-69
2024/01/16 10:50:35;;;;;;;23.70;12.40;;;;;;;16.14;32.62;100175.60;107272;1259;99119;-70
2024/01/16 10:53:05;;;;;;;16.50;12.50;;;;;;;16.05;30.21;100178.14;107256;1257;112950;-68
2024/01/16 10:55:50;;;;;;;20.60;14.40;;;;;;;15.95;30.03;100177.91;107285;1257;107363;-69
2024/01/16 10:58:23;;;;;;;19.70;12.10;;;;;;;16.27;31.42;100181.63;107203;1259;107817;-68
2024/01/16 11:00:53;;;;;;;15.60;11.40;;;;;;;16.68;30.30;100176.86;107275;1258;99083;-69
2024/01/16 11:03:30;;;;;;;13.10;9.70;;;;;;;16.97;29.52;100176.86;107288;1257;99769;-69
2024/01/16 11:06:00;;;;;;;22.00;15.80;;;;;;;17.08;27.60;100179.46;107332;1257;113535;-67
2024/01/16 11:08:33;;;;;;;24.50;16.70;;;;;;;17.32;28.37;100182.31;107271;1257;107778;-68
2024/01/16 11:11:03;;;;;;;16.90;10.60;;;;;;;17.49;26.93;100183.17;107254;1261;106826;-69
2024/01/16 11:13:34;;;;;;;15.70;8.90;;;;;;;17.80;28.57;100183.75;107253;1257;99265;-69